createdAt,value
2018-11-23T00:00:20.436Z,3.33
2018-11-23T00:01:20.443Z,3.28
2018-11-23T00:02:20.452Z,3.28
2018-11-23T00:03:20.459Z,3.24
2018-11-23T00:04:20.480Z,3.20
2018-11-23T00:05:20.474Z,3.17
2018-11-23T00:06:20.487Z,3.20
2018-11-23T00:07:20.493Z,3.13
2018-11-23T00:08:20.497Z,3.17
2018-11-23T00:09:20.513Z,3.14
2018-11-23T00:10:20.517Z,3.18
2018-11-23T00:11:20.522Z,3.14
2018-11-23T00:12:20.544Z,3.14
2018-11-23T00:13:20.541Z,3.15
2018-11-23T00:14:20.547Z,3.10
2018-11-23T00:15:20.566Z,2.99
2018-11-23T00:16:20.564Z,3.03
2018-11-23T00:17:20.574Z,3.05
2018-11-23T00:18:20.582Z,3.05
2018-11-23T00:19:20.597Z,2.97
2018-11-23T00:20:20.596Z,2.95
2018-11-23T00:21:20.605Z,2.95
2018-11-23T00:22:20.616Z,2.97
2018-11-23T00:23:20.621Z,2.87
2018-11-23T00:24:20.631Z,2.89
2018-11-23T00:25:20.639Z,2.93
2018-11-23T00:26:20.651Z,2.84
2018-11-23T00:27:20.655Z,2.93
2018-11-23T00:28:20.662Z,2.93
2018-11-23T00:29:20.675Z,2.99
2018-11-23T00:30:20.676Z,2.93
2018-11-23T00:31:20.683Z,2.96
2018-11-23T00:32:20.700Z,2.96
2018-11-23T00:33:20.700Z,2.99
2018-11-23T00:34:20.707Z,3.00
2018-11-23T00:35:20.718Z,2.99
2018-11-23T00:36:20.724Z,2.95
2018-11-23T00:37:20.734Z,3.02
2018-11-23T00:38:20.752Z,2.97
2018-11-23T00:39:20.748Z,2.99
2018-11-23T00:40:20.755Z,3.00
2018-11-23T00:41:20.763Z,3.18
2018-11-23T00:42:20.771Z,3.02
2018-11-23T00:43:20.779Z,3.13
2018-11-23T00:44:20.788Z,3.11
2018-11-23T00:45:20.797Z,3.08
2018-11-23T00:46:20.808Z,3.10
2018-11-23T00:47:20.814Z,3.11
2018-11-23T00:48:20.818Z,3.11
2018-11-23T00:49:20.828Z,3.13
2018-11-23T00:50:20.834Z,3.18
2018-11-23T00:51:20.848Z,3.15
2018-11-23T00:52:20.850Z,3.08
2018-11-23T00:53:20.873Z,3.14
2018-11-23T00:54:20.865Z,3.17
2018-11-23T00:55:20.873Z,3.13
2018-11-23T00:56:20.882Z,3.13
2018-11-23T00:57:20.890Z,3.13
2018-11-23T00:58:20.897Z,3.21
2018-11-23T00:59:20.906Z,3.18
2018-11-23T01:00:20.914Z,3.26
2018-11-23T01:01:20.921Z,3.29
2018-11-23T01:02:20.929Z,3.29
2018-11-23T01:03:20.939Z,3.43
2018-11-23T01:04:20.945Z,3.33
2018-11-23T01:05:20.958Z,3.39
2018-11-23T01:06:20.961Z,3.45
2018-11-23T01:07:20.970Z,3.50
2018-11-23T01:08:20.979Z,3.47
2018-11-23T01:09:20.985Z,3.55
2018-11-23T01:10:20.993Z,3.60
2018-11-23T01:11:21.002Z,3.69
2018-11-23T01:12:21.011Z,3.60
2018-11-23T01:13:21.018Z,3.66
2018-11-23T01:14:21.026Z,3.69
2018-11-23T01:15:21.034Z,3.61
2018-11-23T01:16:21.044Z,3.68
2018-11-23T01:17:21.050Z,3.69
2018-11-23T01:18:21.058Z,3.76
2018-11-23T01:19:21.066Z,3.60
2018-11-23T01:20:21.082Z,3.70
2018-11-23T01:21:21.085Z,3.78
2018-11-23T01:22:21.092Z,3.61
2018-11-23T01:23:21.201Z,3.66
2018-11-23T01:24:21.107Z,3.72
2018-11-23T01:25:21.119Z,3.58
2018-11-23T01:26:21.125Z,3.61
2018-11-23T01:27:21.138Z,3.61
2018-11-23T01:28:21.142Z,3.47
2018-11-23T01:29:21.149Z,3.61
2018-11-23T01:30:21.157Z,3.62
2018-11-23T01:31:21.167Z,3.68
2018-11-23T01:32:21.180Z,3.72
2018-11-23T01:33:21.186Z,3.66
2018-11-23T01:34:21.194Z,3.73
2018-11-23T01:35:21.199Z,3.72
2018-11-23T01:36:21.208Z,3.68
2018-11-23T01:37:21.216Z,3.65
2018-11-23T01:38:21.227Z,3.68
2018-11-23T01:39:21.233Z,3.61
2018-11-23T01:40:21.239Z,3.58
2018-11-23T01:41:21.248Z,3.57
2018-11-23T01:42:21.262Z,3.47
2018-11-23T01:43:21.266Z,3.45
2018-11-23T01:44:21.272Z,3.31
2018-11-23T01:45:21.286Z,3.35
2018-11-23T01:46:21.293Z,3.40
2018-11-23T01:47:21.306Z,3.35
2018-11-23T01:48:21.306Z,3.32
2018-11-23T01:49:21.324Z,3.24
2018-11-23T01:50:21.321Z,3.26
2018-11-23T01:51:21.337Z,3.35
2018-11-23T01:52:21.342Z,3.31
2018-11-23T01:53:21.344Z,3.24
2018-11-23T01:54:21.355Z,3.23
2018-11-23T01:55:21.362Z,3.33
2018-11-23T01:56:21.373Z,3.31
2018-11-23T01:57:21.378Z,3.24
2018-11-23T01:58:21.390Z,3.21
2018-11-23T01:59:21.395Z,3.24
2018-11-23T02:00:21.405Z,3.23
2018-11-23T02:01:21.425Z,3.29
2018-11-23T02:02:21.419Z,3.29
2018-11-23T02:03:21.427Z,3.29
2018-11-23T02:04:21.434Z,3.33
2018-11-23T02:05:21.447Z,3.36
2018-11-23T02:06:21.456Z,3.32
2018-11-23T02:07:21.461Z,3.32
2018-11-23T02:08:21.468Z,3.36
2018-11-23T02:09:21.477Z,3.45
2018-11-23T02:10:21.484Z,3.39
2018-11-23T02:11:21.494Z,3.42
2018-11-23T02:12:21.502Z,3.32
2018-11-23T02:13:21.508Z,3.32
2018-11-23T02:14:21.518Z,3.35
2018-11-23T02:15:21.531Z,3.35
2018-11-23T02:16:21.535Z,3.32
2018-11-23T02:17:21.544Z,3.26
2018-11-23T02:18:21.551Z,3.24
2018-11-23T02:19:21.558Z,3.24
2018-11-23T02:20:21.573Z,3.15
2018-11-23T02:21:21.574Z,3.17
2018-11-23T02:22:21.582Z,3.10
2018-11-23T02:23:21.594Z,3.14
2018-11-23T02:24:21.598Z,3.14
2018-11-23T02:25:21.625Z,3.14
2018-11-23T02:26:21.616Z,3.21
2018-11-23T02:27:21.628Z,3.13
2018-11-23T02:28:21.631Z,3.15
2018-11-23T02:29:21.639Z,3.15
2018-11-23T02:30:21.655Z,3.10
2018-11-23T02:31:21.655Z,3.14
2018-11-23T02:32:21.667Z,3.08
2018-11-23T02:33:21.672Z,3.13
2018-11-23T02:34:21.678Z,3.11
2018-11-23T02:35:21.688Z,3.03
2018-11-23T02:36:21.694Z,3.11
2018-11-23T02:37:21.703Z,3.10
2018-11-23T02:38:21.710Z,3.03
2018-11-23T02:39:21.718Z,2.96
2018-11-23T02:40:21.727Z,2.95
2018-11-23T02:41:21.733Z,2.96
2018-11-23T02:42:21.749Z,2.99
2018-11-23T02:43:21.759Z,3.00
2018-11-23T02:44:21.762Z,2.99
2018-11-23T02:45:21.768Z,2.95
2018-11-23T02:46:21.772Z,2.99
2018-11-23T02:47:21.787Z,2.96
2018-11-23T02:48:21.790Z,2.85
2018-11-23T02:49:21.797Z,2.85
2018-11-23T02:50:21.808Z,2.85
2018-11-23T02:51:21.816Z,2.78
2018-11-23T02:52:21.821Z,2.79
2018-11-23T02:53:21.829Z,2.75
2018-11-23T02:54:21.835Z,2.79
2018-11-23T02:55:21.848Z,2.84
2018-11-23T02:56:21.852Z,2.82
2018-11-23T02:57:21.863Z,2.82
2018-11-23T02:58:21.867Z,2.81
2018-11-23T02:59:23.959Z,2.72
2018-11-23T03:00:21.883Z,2.67
2018-11-23T03:01:21.890Z,2.74
2018-11-23T03:02:21.901Z,2.69
2018-11-23T03:03:21.907Z,2.69
2018-11-23T03:04:21.914Z,2.75
2018-11-23T03:05:21.922Z,2.72
2018-11-23T03:06:21.928Z,2.74
2018-11-23T03:07:21.940Z,2.66
2018-11-23T03:08:21.946Z,2.74
2018-11-23T03:09:21.953Z,2.72
2018-11-23T03:10:21.959Z,2.75
2018-11-23T03:11:21.962Z,2.75
2018-11-23T03:12:21.970Z,2.71
2018-11-23T03:13:21.978Z,2.72
2018-11-23T03:14:21.994Z,2.64
2018-11-23T03:15:21.995Z,2.69
2018-11-23T03:16:22.010Z,2.64
2018-11-23T03:17:22.013Z,2.71
2018-11-23T03:18:22.016Z,2.69
2018-11-23T03:19:22.027Z,2.72
2018-11-23T03:20:22.033Z,2.66
2018-11-23T03:21:22.042Z,2.69
2018-11-23T03:22:22.047Z,2.77
2018-11-23T03:23:22.055Z,2.71
2018-11-23T03:24:22.068Z,2.72
2018-11-23T03:25:22.078Z,2.67
2018-11-23T03:26:22.078Z,2.63
2018-11-23T03:27:22.087Z,2.69
2018-11-23T03:28:22.095Z,2.69
2018-11-23T03:29:22.106Z,2.64
2018-11-23T03:30:22.111Z,2.67
2018-11-23T03:31:22.121Z,2.63
2018-11-23T03:32:22.135Z,2.53
2018-11-23T03:33:22.134Z,2.49
2018-11-23T03:34:22.141Z,2.43
2018-11-23T03:35:22.158Z,2.46
2018-11-23T03:36:22.157Z,2.45
2018-11-23T03:37:22.164Z,2.49
2018-11-23T03:38:22.185Z,2.49
2018-11-23T03:39:22.182Z,2.52
2018-11-23T03:40:22.190Z,2.45
2018-11-23T03:41:22.195Z,2.45
2018-11-23T03:42:22.214Z,2.52
2018-11-23T03:43:22.209Z,2.49
2018-11-23T03:44:22.217Z,2.45
2018-11-23T03:45:22.247Z,2.41
2018-11-23T03:46:22.233Z,2.42
2018-11-23T03:47:22.239Z,2.43
2018-11-23T03:48:22.249Z,2.42
2018-11-23T03:49:22.266Z,2.46
2018-11-23T03:50:22.263Z,2.45
2018-11-23T03:51:22.272Z,2.45
2018-11-23T03:52:22.280Z,2.39
2018-11-23T03:53:22.298Z,2.42
2018-11-23T03:54:22.294Z,2.28
2018-11-23T03:55:22.305Z,2.43
2018-11-23T03:56:22.314Z,2.25
2018-11-23T03:57:22.316Z,2.31
2018-11-23T03:58:22.324Z,2.31
2018-11-23T03:59:22.332Z,2.28
2018-11-23T04:00:22.340Z,2.31
2018-11-23T04:01:22.347Z,2.25
2018-11-23T04:02:22.353Z,2.25
2018-11-23T04:03:22.366Z,2.41
2018-11-23T04:04:22.376Z,2.42
2018-11-23T04:05:22.384Z,2.43
2018-11-23T04:06:22.384Z,2.39
2018-11-23T04:07:22.391Z,2.35
2018-11-23T04:08:22.401Z,2.41
2018-11-23T04:09:22.407Z,2.38
2018-11-23T04:10:22.422Z,2.28
2018-11-23T04:11:22.425Z,2.45
2018-11-23T04:12:22.431Z,2.31
2018-11-23T04:13:22.436Z,2.31
2018-11-23T04:14:22.455Z,2.35
2018-11-23T04:15:22.459Z,2.28
2018-11-23T04:16:22.462Z,2.41
2018-11-23T04:17:22.469Z,2.31
2018-11-23T04:18:22.475Z,2.25
2018-11-23T04:19:22.486Z,2.28
2018-11-23T04:20:22.491Z,2.27
2018-11-23T04:21:22.497Z,2.30
2018-11-23T04:22:22.506Z,2.30
2018-11-23T04:23:22.516Z,2.30
2018-11-23T04:24:22.519Z,2.35
2018-11-23T04:25:22.529Z,2.17
2018-11-23T04:26:24.812Z,2.23
2018-11-23T04:27:22.542Z,2.17
2018-11-23T04:28:22.549Z,2.27
2018-11-23T04:29:22.562Z,2.21
2018-11-23T04:30:22.567Z,2.20
2018-11-23T04:31:22.576Z,2.21
2018-11-23T04:32:22.580Z,2.23
2018-11-23T04:33:22.592Z,2.21
2018-11-23T04:34:22.595Z,2.23
2018-11-23T04:35:22.606Z,2.30
2018-11-23T04:36:22.611Z,2.20
2018-11-23T04:37:22.618Z,2.24
2018-11-23T04:38:22.624Z,2.24
2018-11-23T04:39:22.732Z,2.24
2018-11-23T04:40:22.639Z,2.17
2018-11-23T04:41:22.649Z,2.18
2018-11-23T04:42:22.655Z,2.30
2018-11-23T04:43:22.667Z,2.34
2018-11-23T04:44:22.669Z,2.28
2018-11-23T04:45:22.678Z,2.30
2018-11-23T04:46:22.685Z,2.30
2018-11-23T04:47:22.693Z,2.25
2018-11-23T04:48:22.702Z,2.24
2018-11-23T04:49:22.712Z,2.17
2018-11-23T04:50:22.714Z,2.28
2018-11-23T04:51:22.722Z,2.28
2018-11-23T04:52:22.729Z,2.31
2018-11-23T04:53:22.738Z,2.30
2018-11-23T04:54:22.745Z,2.23
2018-11-23T04:55:22.751Z,2.27
2018-11-23T04:56:22.760Z,2.24
2018-11-23T04:57:22.768Z,2.27
2018-11-23T04:58:22.775Z,2.18
2018-11-23T04:59:22.782Z,2.23
2018-11-23T05:00:22.790Z,2.16
2018-11-23T05:01:22.802Z,2.16
2018-11-23T05:02:22.804Z,2.17
2018-11-23T05:03:22.813Z,2.20
2018-11-23T05:04:22.822Z,2.23
2018-11-23T05:05:22.833Z,2.14
2018-11-23T05:06:22.836Z,2.20
2018-11-23T05:07:22.849Z,2.21
2018-11-23T05:08:22.852Z,2.18
2018-11-23T05:09:22.881Z,2.16
2018-11-23T05:10:22.865Z,2.16
2018-11-23T05:11:22.873Z,2.12
2018-11-23T05:12:22.880Z,2.18
2018-11-23T05:13:22.889Z,2.23
2018-11-23T05:14:22.893Z,2.18
2018-11-23T05:15:22.903Z,2.10
2018-11-23T05:16:22.911Z,2.21
2018-11-23T05:17:22.918Z,2.18
2018-11-23T05:18:22.935Z,2.24
2018-11-23T05:19:22.932Z,2.18
2018-11-23T05:20:22.940Z,2.25
2018-11-23T05:21:22.947Z,2.20
2018-11-23T05:22:22.954Z,2.24
2018-11-23T05:23:22.961Z,2.24
2018-11-23T05:24:22.969Z,2.17
2018-11-23T05:25:22.978Z,2.17
2018-11-23T05:26:22.983Z,2.20
2018-11-23T05:27:22.993Z,2.25
2018-11-23T05:28:23.014Z,2.31
2018-11-23T05:29:23.007Z,2.14
2018-11-23T05:30:23.015Z,2.25
2018-11-23T05:31:23.022Z,2.21
2018-11-23T05:32:23.030Z,2.14
2018-11-23T05:33:23.043Z,2.21
2018-11-23T05:34:23.055Z,2.21
2018-11-23T05:35:23.052Z,2.09
2018-11-23T05:36:23.059Z,2.17
2018-11-23T05:37:23.069Z,2.16
2018-11-23T05:38:23.077Z,2.24
2018-11-23T05:39:23.082Z,2.21
2018-11-23T05:40:23.091Z,2.23
2018-11-23T05:41:23.129Z,2.20
2018-11-23T05:42:23.106Z,2.17
2018-11-23T05:43:23.117Z,2.20
2018-11-23T05:44:23.119Z,2.18
2018-11-23T05:45:23.126Z,2.10
2018-11-23T05:46:23.133Z,2.20
2018-11-23T05:47:23.141Z,2.14
2018-11-23T05:48:26.955Z,2.14
2018-11-23T05:49:23.163Z,2.10
2018-11-23T05:50:23.163Z,2.10
2018-11-23T05:51:23.171Z,1.95
2018-11-23T05:52:23.383Z,2.03
2018-11-23T05:53:23.205Z,2.00
2018-11-23T05:54:23.193Z,1.98
2018-11-23T05:55:23.209Z,1.99
2018-11-23T05:56:23.207Z,2.05
2018-11-23T05:57:23.216Z,2.06
2018-11-23T05:58:23.223Z,2.02
2018-11-23T05:59:23.237Z,1.99
2018-11-23T06:00:23.237Z,1.99
2018-11-23T06:01:23.246Z,1.95
2018-11-23T06:02:23.253Z,2.00
2018-11-23T06:03:23.262Z,1.87
2018-11-23T06:04:23.267Z,1.93
2018-11-23T06:05:23.277Z,1.87
2018-11-23T06:06:23.293Z,1.88
2018-11-23T06:07:23.292Z,1.88
2018-11-23T06:08:23.298Z,1.86
2018-11-23T06:09:23.305Z,1.87
2018-11-23T06:10:23.312Z,1.88
2018-11-23T06:11:23.325Z,1.91
2018-11-23T06:12:23.332Z,1.79
2018-11-23T06:13:23.336Z,1.84
2018-11-23T06:14:23.341Z,1.83
2018-11-23T06:15:23.349Z,1.80
2018-11-23T06:16:23.362Z,1.88
2018-11-23T06:17:23.364Z,1.77
2018-11-23T06:18:23.373Z,1.81
2018-11-23T06:19:23.380Z,1.87
2018-11-23T06:20:23.387Z,1.81
2018-11-23T06:21:23.396Z,1.84
2018-11-23T06:22:23.409Z,1.88
2018-11-23T06:23:23.407Z,1.91
2018-11-23T06:24:23.415Z,1.83
2018-11-23T06:25:23.423Z,1.86
2018-11-23T06:26:23.429Z,1.87
2018-11-23T06:27:23.441Z,1.83
2018-11-23T06:28:23.447Z,1.90
2018-11-23T06:29:23.451Z,1.90
2018-11-23T06:30:23.459Z,1.98
2018-11-23T06:31:23.465Z,2.03
2018-11-23T06:32:23.472Z,2.00
2018-11-23T06:33:23.481Z,1.99
2018-11-23T06:34:23.489Z,2.00
2018-11-23T06:35:23.495Z,1.93
2018-11-23T06:36:23.503Z,1.91
2018-11-23T06:37:23.510Z,1.99
2018-11-23T06:38:23.516Z,1.98
2018-11-23T06:39:23.523Z,2.00
2018-11-23T06:40:23.532Z,2.00
2018-11-23T06:41:23.539Z,1.99
2018-11-23T06:42:23.547Z,1.99
2018-11-23T06:43:23.552Z,1.93
2018-11-23T06:44:23.560Z,1.98
2018-11-23T06:45:23.567Z,2.00
2018-11-23T06:46:23.608Z,1.98
2018-11-23T06:47:23.584Z,2.03
2018-11-23T06:48:23.589Z,1.90
2018-11-23T06:49:23.596Z,1.91
2018-11-23T06:50:23.622Z,1.86
2018-11-23T06:51:23.620Z,1.91
2018-11-23T06:52:23.618Z,1.90
2018-11-23T06:53:23.635Z,1.88
2018-11-23T06:54:23.639Z,1.91
2018-11-23T06:55:23.639Z,1.91
2018-11-23T06:56:23.650Z,1.86
2018-11-23T06:57:23.654Z,1.79
2018-11-23T06:58:23.661Z,1.79
2018-11-23T06:59:23.668Z,1.76
2018-11-23T07:00:23.678Z,1.73
2018-11-23T07:01:23.684Z,1.77
2018-11-23T07:02:23.691Z,1.79
2018-11-23T07:03:23.699Z,1.79
2018-11-23T07:04:23.706Z,1.81
2018-11-23T07:05:23.714Z,1.81
2018-11-23T07:06:23.720Z,1.79
2018-11-23T07:07:23.728Z,1.81
2018-11-23T07:08:23.741Z,1.77
2018-11-23T07:09:23.741Z,1.76
2018-11-23T07:10:23.749Z,1.73
2018-11-23T07:11:23.761Z,1.77
2018-11-23T07:12:23.761Z,1.79
2018-11-23T07:13:23.770Z,1.76
2018-11-23T07:14:23.776Z,1.60
2018-11-23T07:15:23.785Z,1.69
2018-11-23T07:16:23.792Z,1.60
2018-11-23T07:17:23.800Z,1.63
2018-11-23T07:18:23.807Z,1.65
2018-11-23T07:19:23.816Z,1.63
2018-11-23T07:20:23.828Z,1.66
2018-11-23T07:21:23.830Z,1.70
2018-11-23T07:22:23.840Z,1.69
2018-11-23T07:23:23.846Z,1.62
2018-11-23T07:24:23.849Z,1.59
2018-11-23T07:25:23.859Z,1.68
2018-11-23T07:26:23.864Z,1.60
2018-11-23T07:27:23.872Z,1.65
2018-11-23T07:28:23.881Z,1.70
2018-11-23T07:29:23.887Z,1.79
2018-11-23T07:30:23.898Z,1.70
2018-11-23T07:31:23.908Z,1.55
2018-11-23T07:32:23.911Z,1.60
2018-11-23T07:33:23.918Z,1.70
2018-11-23T07:34:23.924Z,1.76
2018-11-23T07:35:23.931Z,1.77
2018-11-23T07:36:23.940Z,1.77
2018-11-23T07:37:23.948Z,1.79
2018-11-23T07:38:23.952Z,1.84
2018-11-23T07:39:23.960Z,1.91
2018-11-23T07:40:23.967Z,1.80
2018-11-23T07:41:23.973Z,1.87
2018-11-23T07:42:23.980Z,1.87
2018-11-23T07:43:23.988Z,1.88
2018-11-23T07:44:23.995Z,1.87
2018-11-23T07:45:24.015Z,2.00
2018-11-23T07:46:24.013Z,1.90
2018-11-23T07:47:24.018Z,1.99
2018-11-23T07:48:24.028Z,1.87
2018-11-23T07:49:24.032Z,2.03
2018-11-23T07:50:24.043Z,1.95
2018-11-23T07:51:24.053Z,2.02
2018-11-23T07:52:24.057Z,2.03
2018-11-23T07:53:24.063Z,1.91
2018-11-23T07:54:24.068Z,2.05
2018-11-23T07:55:24.080Z,1.93
2018-11-23T07:56:24.086Z,1.90
2018-11-23T07:57:24.093Z,1.90
2018-11-23T07:58:24.099Z,1.81
2018-11-23T07:59:24.106Z,1.88
2018-11-23T08:00:24.130Z,1.83
2018-11-23T08:01:24.123Z,1.83
2018-11-23T08:02:24.128Z,1.84
2018-11-23T08:03:24.135Z,1.83
2018-11-23T08:04:24.175Z,1.79
2018-11-23T08:05:24.150Z,1.87
2018-11-23T08:06:24.157Z,1.90
2018-11-23T08:07:24.165Z,1.95
2018-11-23T08:08:24.173Z,1.98
2018-11-23T08:09:24.244Z,2.03
2018-11-23T08:10:24.187Z,1.93
2018-11-23T08:11:25.094Z,2.09
2018-11-23T08:12:24.200Z,2.09
2018-11-23T08:13:24.207Z,1.98
2018-11-23T08:14:24.215Z,2.00
2018-11-23T08:15:24.321Z,2.06
2018-11-23T08:16:24.233Z,2.09
2018-11-23T08:17:24.239Z,1.93
2018-11-23T08:18:24.246Z,2.03
2018-11-23T08:19:24.253Z,2.00
2018-11-23T08:20:24.260Z,2.05
2018-11-23T08:21:24.269Z,2.02
2018-11-23T08:22:24.277Z,2.00
2018-11-23T08:23:24.293Z,2.03
2018-11-23T08:24:24.290Z,1.99
2018-11-23T08:25:24.298Z,1.98
2018-11-23T08:26:24.304Z,1.91
2018-11-23T08:27:24.313Z,1.95
2018-11-23T08:28:24.321Z,2.07
2018-11-23T08:29:24.333Z,2.12
2018-11-23T08:30:24.333Z,2.09
2018-11-23T08:31:24.341Z,2.14
2018-11-23T08:32:24.350Z,2.23
2018-11-23T08:33:24.363Z,2.18
2018-11-23T08:34:24.378Z,2.27
2018-11-23T08:35:24.371Z,2.23
2018-11-23T08:36:24.388Z,2.27
2018-11-23T08:37:24.388Z,2.27
2018-11-23T08:38:24.397Z,2.27
2018-11-23T08:39:24.402Z,2.27
2018-11-23T08:40:24.410Z,2.42
2018-11-23T08:41:24.428Z,2.27
2018-11-23T08:42:24.424Z,2.31
2018-11-23T08:43:24.432Z,2.41
2018-11-23T08:44:24.758Z,2.49
2018-11-23T08:45:24.448Z,2.43
2018-11-23T08:46:24.456Z,2.46
2018-11-23T08:47:24.462Z,2.45
2018-11-23T08:48:24.470Z,2.49
2018-11-23T08:49:24.477Z,2.45
2018-11-23T08:50:24.484Z,2.46
2018-11-23T08:51:24.494Z,2.54
2018-11-23T08:52:24.504Z,2.49
2018-11-23T08:53:27.925Z,2.56
2018-11-23T08:54:24.560Z,2.57
2018-11-23T08:56:24.536Z,2.59
2018-11-23T08:57:24.541Z,2.71
2018-11-23T08:58:24.547Z,2.67
2018-11-23T08:59:24.547Z,2.64
2018-11-23T09:00:24.555Z,2.74
2018-11-23T09:01:24.566Z,2.82
2018-11-23T09:02:24.571Z,2.82
2018-11-23T09:03:24.578Z,2.85
2018-11-23T09:04:24.587Z,2.85
2018-11-23T09:05:24.593Z,2.89
2018-11-23T09:06:24.602Z,3.06
2018-11-23T09:07:24.608Z,2.99
2018-11-23T09:08:24.621Z,3.02
2018-11-23T09:09:24.626Z,2.99
2018-11-23T09:10:24.645Z,3.08
2018-11-23T09:11:24.639Z,3.06
2018-11-23T09:12:24.649Z,3.08
2018-11-23T09:13:25.064Z,3.14
2018-11-23T09:14:24.665Z,3.18
2018-11-23T09:15:24.675Z,3.29
2018-11-23T09:16:24.695Z,3.33
2018-11-23T09:17:24.689Z,3.33
2018-11-23T09:18:24.697Z,3.33
2018-11-23T09:19:24.707Z,3.36
2018-11-23T09:20:24.715Z,3.33
2018-11-23T09:21:24.724Z,3.31
2018-11-23T09:22:24.728Z,3.54
2018-11-23T09:23:24.735Z,3.40
2018-11-23T09:24:24.767Z,3.47
2018-11-23T09:25:24.786Z,3.43
2018-11-23T09:26:24.757Z,3.45
2018-11-23T09:27:24.767Z,3.52
2018-11-23T09:28:24.775Z,3.70
2018-11-23T09:29:24.784Z,3.52
2018-11-23T09:30:24.793Z,3.52
2018-11-23T09:31:24.799Z,3.70
2018-11-23T09:32:24.808Z,3.65
2018-11-23T09:33:24.815Z,3.72
2018-11-23T09:34:24.822Z,3.76
2018-11-23T09:35:24.832Z,3.80
2018-11-23T09:36:24.839Z,3.79
2018-11-23T09:37:24.849Z,3.73
2018-11-23T09:38:24.856Z,3.75
2018-11-23T09:39:24.864Z,3.75
2018-11-23T09:40:24.871Z,3.88
2018-11-23T09:41:24.892Z,3.86
2018-11-23T09:42:24.888Z,3.91
2018-11-23T09:43:24.895Z,3.90
2018-11-23T09:44:24.939Z,3.93
2018-11-23T09:45:24.912Z,3.90
2018-11-23T09:46:24.920Z,4.02
2018-11-23T09:47:24.933Z,3.93
2018-11-23T09:48:24.945Z,3.91
2018-11-23T09:49:24.945Z,4.00
2018-11-23T09:50:24.953Z,4.00
2018-11-23T09:51:25.004Z,4.02
2018-11-23T09:52:24.970Z,4.09
2018-11-23T09:53:24.982Z,4.02
2018-11-23T09:54:24.985Z,4.11
2018-11-23T09:55:24.995Z,4.20
2018-11-23T09:56:25.003Z,4.22
2018-11-23T09:57:25.016Z,4.27
2018-11-23T09:58:25.020Z,4.27
2018-11-23T09:59:25.027Z,4.27
2018-11-23T10:00:25.037Z,4.42
2018-11-23T10:01:25.046Z,4.41
2018-11-23T10:02:25.055Z,4.42
2018-11-23T10:03:25.074Z,4.41
2018-11-23T10:04:25.086Z,4.58
2018-11-23T10:05:25.081Z,4.54
2018-11-23T10:06:25.088Z,4.65
2018-11-23T10:07:25.097Z,4.50
2018-11-23T10:08:25.104Z,4.55
2018-11-23T10:09:25.124Z,4.59
2018-11-23T10:10:25.124Z,4.60
2018-11-23T10:11:25.131Z,4.60
2018-11-23T10:12:25.147Z,4.67
2018-11-23T10:13:25.145Z,4.65
2018-11-23T10:14:25.174Z,4.69
2018-11-23T10:15:25.163Z,4.70
2018-11-23T10:16:25.171Z,4.66
2018-11-23T10:17:25.181Z,4.66
2018-11-23T10:18:25.186Z,4.67
2018-11-23T10:19:25.196Z,4.66
2018-11-23T10:20:25.209Z,4.67
2018-11-23T10:21:25.214Z,4.66
2018-11-23T10:22:25.221Z,4.73
2018-11-23T10:23:25.230Z,4.72
2018-11-23T10:24:25.248Z,4.77
2018-11-23T10:25:25.247Z,4.88
2018-11-23T10:26:25.255Z,4.94
2018-11-23T10:27:25.263Z,4.97
2018-11-23T10:28:25.277Z,5.00
2018-11-23T10:29:25.282Z,5.04
2018-11-23T10:30:25.290Z,5.09
2018-11-23T10:31:25.319Z,5.13
2018-11-23T10:32:25.307Z,5.20
2018-11-23T10:33:28.340Z,5.27
2018-11-23T10:34:25.323Z,5.31
2018-11-23T10:35:25.342Z,5.21
2018-11-23T10:36:25.342Z,5.30
2018-11-23T10:37:25.349Z,5.24
2018-11-23T10:38:25.363Z,5.13
2018-11-23T10:39:25.368Z,5.21
2018-11-23T10:40:25.376Z,5.24
2018-11-23T10:41:25.386Z,5.25
2018-11-23T10:42:25.393Z,5.25
2018-11-23T10:43:25.401Z,5.33
2018-11-23T10:44:25.410Z,5.42
2018-11-23T10:45:25.418Z,5.49
2018-11-23T10:46:25.427Z,5.45
2018-11-23T10:47:25.437Z,5.43
2018-11-23T10:48:25.451Z,5.49
2018-11-23T10:49:25.460Z,5.46
2018-11-23T10:50:25.464Z,5.58
2018-11-23T10:51:25.486Z,5.49
2018-11-23T10:52:25.520Z,5.51
2018-11-23T10:53:25.493Z,5.42
2018-11-23T10:54:25.499Z,5.49
2018-11-23T10:55:25.506Z,5.58
2018-11-23T10:56:25.517Z,5.64
2018-11-23T10:57:25.525Z,5.58
2018-11-23T10:58:25.537Z,5.63
2018-11-23T10:59:25.544Z,5.53
2018-11-23T11:00:25.592Z,5.68
2018-11-23T11:01:25.564Z,5.68
2018-11-23T11:02:25.577Z,5.71
2018-11-23T11:03:25.581Z,5.60
2018-11-23T11:04:25.586Z,5.67
2018-11-23T11:05:25.594Z,5.72
2018-11-23T11:06:25.607Z,5.78
2018-11-23T11:07:25.819Z,5.79
2018-11-23T11:08:25.623Z,5.74
2018-11-23T11:09:25.631Z,5.76
2018-11-23T11:10:25.639Z,5.79
2018-11-23T11:11:25.649Z,5.75
2018-11-23T11:12:25.658Z,5.79
2018-11-23T11:13:25.666Z,5.79
2018-11-23T11:14:25.679Z,5.74
2018-11-23T11:15:25.684Z,5.86
2018-11-23T11:16:25.693Z,5.85
2018-11-23T11:17:25.702Z,5.83
2018-11-23T11:18:25.711Z,5.96
2018-11-23T11:19:25.719Z,5.97
2018-11-23T11:20:25.729Z,6.03
2018-11-23T11:21:25.737Z,6.09
2018-11-23T11:22:25.746Z,6.06
2018-11-23T11:23:25.756Z,6.03
2018-11-23T11:24:25.764Z,6.12
2018-11-23T11:25:25.773Z,6.15
2018-11-23T11:26:25.782Z,6.17
2018-11-23T11:27:25.794Z,6.18
2018-11-23T11:28:25.799Z,6.27
2018-11-23T11:29:25.812Z,6.37
2018-11-23T11:30:25.817Z,6.37
2018-11-23T11:31:25.828Z,6.36
2018-11-23T11:32:25.839Z,6.41
2018-11-23T11:33:25.849Z,6.40
2018-11-23T11:34:25.854Z,6.25
2018-11-23T11:35:25.869Z,6.41
2018-11-23T11:36:25.873Z,6.31
2018-11-23T11:37:25.886Z,6.40
2018-11-23T11:38:25.890Z,6.40
2018-11-23T11:39:25.899Z,6.41
2018-11-23T11:40:25.909Z,6.33
2018-11-23T11:41:25.917Z,6.37
2018-11-23T11:42:25.928Z,6.38
2018-11-23T11:43:25.945Z,6.28
2018-11-23T11:44:25.945Z,6.43
2018-11-23T11:45:25.959Z,6.41
2018-11-23T11:46:25.964Z,6.46
2018-11-23T11:47:25.973Z,6.44
2018-11-23T11:48:25.980Z,6.51
2018-11-23T11:49:25.992Z,6.48
2018-11-23T11:50:25.998Z,6.55
2018-11-23T11:51:26.014Z,6.55
2018-11-23T11:52:26.118Z,6.58
2018-11-23T11:53:26.032Z,6.54
2018-11-23T11:54:26.041Z,6.55
2018-11-23T11:55:26.047Z,6.64
2018-11-23T11:56:26.057Z,6.66
2018-11-23T11:57:26.066Z,6.54
2018-11-23T11:58:26.076Z,6.58
2018-11-23T11:59:26.085Z,6.69
2018-11-23T12:00:26.103Z,6.67
2018-11-23T12:01:26.104Z,6.54
2018-11-23T12:02:26.112Z,6.55
2018-11-23T12:03:26.121Z,6.56
2018-11-23T12:04:26.130Z,6.67
2018-11-23T12:05:26.144Z,6.66
2018-11-23T12:06:26.157Z,6.56
2018-11-23T12:07:26.159Z,6.61
2018-11-23T12:08:26.174Z,6.58
2018-11-23T12:09:26.176Z,6.67
2018-11-23T12:10:26.188Z,6.73
2018-11-23T12:11:26.199Z,6.73
2018-11-23T12:12:26.204Z,6.71
2018-11-23T12:13:26.218Z,6.71
2018-11-23T12:14:26.229Z,6.64
2018-11-23T12:15:26.234Z,6.71
2018-11-23T12:16:26.244Z,6.71
2018-11-23T12:17:26.252Z,6.73
2018-11-23T12:18:26.261Z,6.80
2018-11-23T12:19:26.273Z,6.77
2018-11-23T12:20:26.281Z,6.77
2018-11-23T12:21:26.290Z,6.74
2018-11-23T12:22:26.303Z,6.79
2018-11-23T12:23:26.308Z,6.74
2018-11-23T12:24:26.317Z,6.79
2018-11-23T12:25:26.355Z,6.76
2018-11-23T12:26:26.341Z,6.73
2018-11-23T12:27:29.348Z,6.71
2018-11-23T12:28:26.356Z,6.73
2018-11-23T12:29:26.369Z,6.71
2018-11-23T12:30:26.373Z,6.70
2018-11-23T12:31:26.386Z,6.73
2018-11-23T12:32:26.393Z,6.79
2018-11-23T12:33:26.418Z,6.77
2018-11-23T12:34:26.412Z,6.74
2018-11-23T12:35:26.421Z,6.81
2018-11-23T12:36:26.432Z,6.77
2018-11-23T12:37:26.441Z,6.73
2018-11-23T12:38:26.450Z,6.71
2018-11-23T12:39:26.459Z,6.76
2018-11-23T12:40:26.469Z,6.76
2018-11-23T12:41:26.477Z,6.89
2018-11-23T12:42:26.487Z,6.76
2018-11-23T12:43:26.499Z,6.79
2018-11-23T12:44:26.506Z,6.77
2018-11-23T12:45:26.518Z,6.79
2018-11-23T12:46:26.525Z,6.88
2018-11-23T12:47:26.562Z,6.87
2018-11-23T12:48:26.543Z,6.79
2018-11-23T12:49:26.554Z,6.85
2018-11-23T12:50:26.562Z,6.85
2018-11-23T12:51:26.573Z,6.87
2018-11-23T12:52:26.587Z,6.91
2018-11-23T12:53:26.591Z,6.89
2018-11-23T12:54:26.601Z,6.99
2018-11-23T12:55:26.612Z,6.95
2018-11-23T12:56:26.620Z,6.94
2018-11-23T12:57:26.629Z,6.97
2018-11-23T12:58:26.640Z,6.98
2018-11-23T12:59:26.648Z,7.02
2018-11-23T13:00:26.658Z,6.92
2018-11-23T13:01:26.669Z,7.03
2018-11-23T13:02:26.687Z,7.02
2018-11-23T13:03:26.686Z,6.98
2018-11-23T13:04:26.697Z,7.02
2018-11-23T13:05:26.709Z,7.05
2018-11-23T13:06:26.722Z,7.03
2018-11-23T13:07:26.724Z,6.95
2018-11-23T13:08:26.734Z,7.02
2018-11-23T13:09:26.742Z,7.02
2018-11-23T13:10:26.751Z,6.94
2018-11-23T13:11:26.765Z,6.98
2018-11-23T13:12:26.771Z,7.05
2018-11-23T13:13:26.782Z,6.92
2018-11-23T13:14:26.789Z,7.02
2018-11-23T13:15:26.800Z,7.05
2018-11-23T13:16:26.809Z,7.13
2018-11-23T13:17:26.821Z,7.15
2018-11-23T13:18:26.834Z,7.10
2018-11-23T13:19:26.838Z,7.12